Time,TemperatureF,DewpointF,PressureIn,WindDirection,WindDirectionDegrees,WindSpeedMPH,WindSpeedGustMPH,Humidity,HourlyPrecipIn,Conditions,Clouds,dailyrainin,SoftwareType,DateUTC
2013-02-11 00:02:00,60.0,58.0,30.21,SSE,156,3.0,5.0,92,99.99,,,-99.99,,2013-02-11 05:02:00,
2013-02-11 00:12:00,60.0,58.0,30.20,SSE,158,3.0,5.0,94,99.99,,,-99.99,,2013-02-11 05:12:00,
2013-02-11 00:22:00,60.0,58.0,30.20,SSE,158,3.0,5.0,94,99.99,,,-99.99,,2013-02-11 05:22:00,
2013-02-11 00:32:00,60.0,59.0,30.19,SSE,159,4.0,6.0,95,99.99,,,-99.99,,2013-02-11 05:32:00,
2013-02-11 00:42:00,60.0,59.0,30.19,SSE,156,3.0,5.0,96,99.99,,,-99.99,,2013-02-11 05:42:00,
2013-02-11 00:53:00,60.0,59.0,30.19,SSE,156,3.0,5.0,96,99.99,,,-99.99,,2013-02-11 05:53:00,
2013-02-11 01:02:00,60.0,59.0,30.19,SE,141,3.0,6.0,97,99.99,,,-99.99,,2013-02-11 06:02:00,
2013-02-11 01:11:00,61.0,60.0,30.19,SSE,156,4.0,7.0,97,99.99,,,-99.99,,2013-02-11 06:11:00,
2013-02-11 01:22:00,61.0,60.0,30.19,SSE,156,4.0,7.0,97,99.99,,,-99.99,,2013-02-11 06:22:00,
2013-02-11 01:32:00,61.0,60.0,30.19,SSE,158,3.0,5.0,97,99.99,,,-99.99,,2013-02-11 06:32:00,
2013-02-11 01:42:00,61.0,60.0,30.19,SSE,160,3.0,5.0,96,99.99,,,-99.99,,2013-02-11 06:42:00,
2013-02-11 01:52:00,61.0,60.0,30.19,SSE,160,3.0,5.0,96,99.99,,,-99.99,,2013-02-11 06:52:00,
2013-02-11 02:01:00,60.0,59.0,30.18,South,169,3.0,5.0,96,99.99,,,-99.99,,2013-02-11 07:01:00,
2013-02-11 02:11:00,60.0,59.0,30.18,SSE,153,4.0,6.0,97,99.99,,,-99.99,,2013-02-11 07:11:00,
2013-02-11 02:22:00,60.0,59.0,30.18,SSE,153,4.0,6.0,97,99.99,,,-99.99,,2013-02-11 07:22:00,
2013-02-11 02:32:00,60.0,59.0,30.18,SSE,155,4.0,7.0,97,99.99,,,-99.99,,2013-02-11 07:32:00,
2013-02-11 02:42:00,60.0,59.0,30.17,South,181,4.0,6.0,98,99.99,,,-99.99,,2013-02-11 07:42:00,
2013-02-11 02:52:00,60.0,59.0,30.17,South,181,4.0,6.0,98,99.99,,,-99.99,,2013-02-11 07:52:00,
2013-02-11 03:01:00,60.0,59.0,30.17,SSE,156,5.0,7.0,98,99.99,,,-99.99,,2013-02-11 08:01:00,
2013-02-11 03:11:00,60.0,59.0,30.16,SSE,162,5.0,8.0,98,99.99,,,-99.99,,2013-02-11 08:11:00,
2013-02-11 03:21:00,60.0,59.0,30.16,SSE,162,5.0,8.0,98,99.99,,,-99.99,,2013-02-11 08:21:00,
2013-02-11 03:32:00,61.0,60.0,30.16,SSE,165,5.0,8.0,97,99.99,,,-99.99,,2013-02-11 08:32:00,
2013-02-11 03:42:00,61.0,60.0,30.16,SSW,194,5.0,9.0,97,99.99,,,-99.99,,2013-02-11 08:42:00,
2013-02-11 03:52:00,61.0,60.0,30.16,SSW,194,5.0,9.0,97,99.99,,,-99.99,,2013-02-11 08:52:00,
2013-02-11 04:01:00,61.0,60.0,30.16,South,177,6.0,9.0,96,99.99,,,-99.99,,2013-02-11 09:01:00,
2013-02-11 04:12:00,61.0,60.0,30.15,SSE,153,5.0,8.0,95,99.99,,,-99.99,,2013-02-11 09:12:00,
2013-02-11 04:21:00,61.0,60.0,30.15,SSE,153,5.0,8.0,95,99.99,,,-99.99,,2013-02-11 09:21:00,
2013-02-11 04:32:00,62.0,60.0,30.15,SSW,198,6.0,10.0,94,99.99,,,-99.99,,2013-02-11 09:32:00,
2013-02-11 04:42:00,62.0,60.0,30.15,SSW,198,6.0,10.0,94,99.99,,,-99.99,,2013-02-11 09:42:00,
2013-02-11 04:52:00,62.0,60.0,30.15,SSE,166,5.0,8.0,92,99.99,,,-99.99,,2013-02-11 09:52:00,
2013-02-11 05:01:00,62.0,60.0,30.15,South,170,5.0,8.0,92,99.99,,,-99.99,,2013-02-11 10:01:00,
2013-02-11 05:11:00,62.0,60.0,30.15,South,172,4.0,6.0,92,99.99,,,-99.99,,2013-02-11 10:11:00,
2013-02-11 05:21:00,62.0,60.0,30.15,South,172,4.0,6.0,92,99.99,,,-99.99,,2013-02-11 10:21:00,
2013-02-11 05:32:00,61.0,59.0,30.16,SSE,159,3.0,5.0,94,99.99,,,-99.99,,2013-02-11 10:32:00,
2013-02-11 05:42:00,61.0,59.0,30.16,South,177,3.0,5.0,94,99.99,,,-99.99,,2013-02-11 10:42:00,
2013-02-11 05:52:00,61.0,59.0,30.16,South,177,3.0,5.0,94,99.99,,,-99.99,,2013-02-11 10:52:00,
2013-02-11 06:02:00,60.0,58.0,30.17,SSE,167,3.0,4.0,93,99.99,,,-99.99,,2013-02-11 11:02:00,
2013-02-11 06:11:00,60.0,58.0,30.17,SSE,167,3.0,4.0,93,99.99,,,-99.99,,2013-02-11 11:11:00,
2013-02-11 06:22:00,59.0,58.0,30.18,SSE,160,1.0,2.0,96,99.99,,,-99.99,,2013-02-11 11:22:00,
2013-02-11 06:32:00,58.0,57.0,30.18,North,0,0.0,0.0,96,99.99,,,-99.99,,2013-02-11 11:32:00,
2013-02-11 06:42:00,57.0,56.0,30.19,North,0,0.0,0.0,97,99.99,,,-99.99,,2013-02-11 11:42:00,
2013-02-11 06:52:00,57.0,56.0,30.19,North,0,0.0,0.0,97,99.99,,,-99.99,,2013-02-11 11:52:00,
2013-02-11 07:03:00,56.0,55.0,30.19,North,0,0.0,0.0,98,99.99,,,-99.99,,2013-02-11 12:03:00,
2013-02-11 07:12:00,56.0,55.0,30.19,North,0,0.0,0.0,98,99.99,,,-99.99,,2013-02-11 12:12:00,
2013-02-11 07:22:00,56.0,55.0,30.19,North,0,0.0,0.0,98,99.99,,,-99.99,,2013-02-11 12:22:00,
2013-02-11 07:32:00,55.0,54.0,30.20,North,0,0.0,0.0,98,99.99,,,-99.99,,2013-02-11 12:32:00,
2013-02-11 07:42:00,55.0,55.0,30.20,ESE,120,2.0,4.0,99,99.99,,,-99.99,,2013-02-11 12:42:00,
2013-02-11 07:52:00,55.0,55.0,30.20,ESE,120,2.0,4.0,99,99.99,,,-99.99,,2013-02-11 12:52:00,
2013-02-11 08:02:00,56.0,56.0,30.20,SE,134,1.0,4.0,100,99.99,,,-99.99,,2013-02-11 13:02:00,
2013-02-11 08:12:00,59.0,59.0,30.21,ESE,121,2.0,4.0,100,99.99,,,-99.99,,2013-02-11 13:12:00,
2013-02-11 08:22:00,59.0,59.0,30.21,ESE,121,2.0,4.0,100,99.99,,,-99.99,,2013-02-11 13:22:00,
2013-02-11 08:32:00,60.0,60.0,30.21,ESE,111,3.0,5.0,100,99.99,,,-99.99,,2013-02-11 13:32:00,
2013-02-11 08:42:00,60.0,60.0,30.21,ESE,111,3.0,5.0,100,99.99,,,-99.99,,2013-02-11 13:42:00,
2013-02-11 08:52:00,61.0,61.0,30.21,SSE,152,2.0,6.0,100,99.99,,,-99.99,,2013-02-11 13:52:00,
2013-02-11 09:02:00,64.0,64.0,30.22,SSE,152,3.0,5.0,99,99.99,,,-99.99,,2013-02-11 14:02:00,
2013-02-11 09:12:00,64.0,64.0,30.22,SSE,152,3.0,5.0,99,99.99,,,-99.99,,2013-02-11 14:12:00,
2013-02-11 09:22:00,66.0,63.0,30.22,South,186,3.0,6.0,89,99.99,,,-99.99,,2013-02-11 14:22:00,
2013-02-11 09:33:00,69.0,63.0,30.22,SSE,158,5.0,7.0,81,99.99,,,-99.99,,2013-02-11 14:33:00,
2013-02-11 09:42:00,71.0,62.0,30.22,South,180,5.0,12.0,74,99.99,,,-99.99,,2013-02-11 14:42:00,
2013-02-11 09:53:00,71.0,62.0,30.22,South,180,5.0,12.0,74,99.99,,,-99.99,,2013-02-11 14:53:00,
2013-02-11 10:02:00,73.0,63.0,30.22,South,181,8.0,12.0,70,99.99,,,-99.99,,2013-02-11 15:02:00,
2013-02-11 10:11:00,74.0,64.0,30.22,South,183,7.0,13.0,70,99.99,,,-99.99,,2013-02-11 15:11:00,
2013-02-11 10:22:00,74.0,64.0,30.22,South,183,7.0,13.0,70,99.99,,,-99.99,,2013-02-11 15:22:00,
2013-02-11 10:32:00,75.0,62.0,30.22,SSE,152,10.0,18.0,65,99.99,,,-99.99,,2013-02-11 15:32:00,
2013-02-11 10:42:00,76.0,62.0,30.22,South,187,8.0,15.0,62,99.99,,,-99.99,,2013-02-11 15:42:00,
2013-02-11 10:52:00,76.0,62.0,30.22,South,187,8.0,15.0,62,99.99,,,-99.99,,2013-02-11 15:52:00,
2013-02-11 11:02:00,77.0,62.0,30.22,SSW,203,9.0,16.0,59,99.99,,,-99.99,,2013-02-11 16:02:00,
2013-02-11 11:12:00,78.0,62.0,30.22,SSW,193,9.0,15.0,57,99.99,,,-99.99,,2013-02-11 16:12:00,
2013-02-11 11:22:00,78.0,62.0,30.22,SSW,193,9.0,15.0,57,99.99,,,-99.99,,2013-02-11 16:22:00,
2013-02-11 11:32:00,79.0,61.0,30.21,SSE,158,7.0,13.0,55,99.99,,,-99.99,,2013-02-11 16:32:00,
2013-02-11 11:42:00,81.0,62.0,30.20,SSW,198,9.0,13.0,52,99.99,,,-99.99,,2013-02-11 16:42:00,
2013-02-11 11:52:00,81.0,62.0,30.20,SSW,198,9.0,13.0,52,99.99,,,-99.99,,2013-02-11 16:52:00,
2013-02-11 12:02:00,80.0,59.0,30.19,WSW,238,7.0,17.0,49,99.99,,,-99.99,,2013-02-11 17:02:00,
2013-02-11 12:11:00,80.0,59.0,30.19,WSW,238,7.0,17.0,49,99.99,,,-99.99,,2013-02-11 17:11:00,
2013-02-11 12:22:00,80.0,60.0,30.19,South,186,5.0,11.0,50,99.99,,,-99.99,,2013-02-11 17:22:00,
2013-02-11 12:32:00,81.0,59.0,30.19,SSW,205,5.0,10.0,48,99.99,,,-99.99,,2013-02-11 17:32:00,
2013-02-11 12:42:00,81.0,59.0,30.19,SSW,205,5.0,10.0,48,99.99,,,-99.99,,2013-02-11 17:42:00,
2013-02-11 12:53:00,80.0,59.0,30.17,SSW,198,8.0,13.0,49,99.99,,,-99.99,,2013-02-11 17:53:00,
2013-02-11 13:02:00,80.0,60.0,30.17,South,169,6.0,9.0,51,99.99,,,-99.99,,2013-02-11 18:02:00,
2013-02-11 13:11:00,80.0,60.0,30.17,South,169,6.0,9.0,51,99.99,,,-99.99,,2013-02-11 18:11:00,
2013-02-11 13:22:00,80.0,60.0,30.16,South,183,6.0,12.0,51,99.99,,,-99.99,,2013-02-11 18:22:00,
2013-02-11 13:32:00,82.0,59.0,30.15,SSW,211,7.0,11.0,45,99.99,,,-99.99,,2013-02-11 18:32:00,
2013-02-11 13:42:00,81.0,59.0,30.14,South,183,4.0,8.0,47,99.99,,,-99.99,,2013-02-11 18:42:00,
2013-02-11 13:54:00,81.0,59.0,30.14,South,183,4.0,8.0,47,99.99,,,-99.99,,2013-02-11 18:54:00,
2013-02-11 14:02:00,83.0,59.0,30.13,SSW,200,7.0,11.0,44,99.99,,,-99.99,,2013-02-11 19:02:00,
2013-02-11 14:11:00,83.0,59.0,30.13,WSW,246,8.0,13.0,44,99.99,,,-99.99,,2013-02-11 19:11:00,
2013-02-11 14:22:00,83.0,59.0,30.13,WSW,246,8.0,13.0,44,99.99,,,-99.99,,2013-02-11 19:22:00,
2013-02-11 14:32:00,83.0,58.0,30.12,South,173,5.0,10.0,43,99.99,,,-99.99,,2013-02-11 19:32:00,
2013-02-11 14:42:00,84.0,59.0,30.12,SW,215,6.0,10.0,43,99.99,,,-99.99,,2013-02-11 19:42:00,
2013-02-11 14:52:00,84.0,59.0,30.12,SW,215,6.0,10.0,43,99.99,,,-99.99,,2013-02-11 19:52:00,
2013-02-11 15:01:00,84.0,58.0,30.11,SSW,201,7.0,11.0,42,99.99,,,-99.99,,2013-02-11 20:01:00,
2013-02-11 15:11:00,85.0,59.0,30.11,SW,235,6.0,11.0,42,99.99,,,-99.99,,2013-02-11 20:11:00,
2013-02-11 15:21:00,85.0,59.0,30.11,SW,235,6.0,11.0,42,99.99,,,-99.99,,2013-02-11 20:21:00,
2013-02-11 15:32:00,83.0,60.0,30.10,SSW,203,5.0,8.0,46,99.99,,,-99.99,,2013-02-11 20:32:00,
2013-02-11 15:42:00,83.0,59.0,30.10,SSW,201,8.0,10.0,45,99.99,,,-99.99,,2013-02-11 20:42:00,
2013-02-11 15:52:00,83.0,59.0,30.10,SSW,201,8.0,10.0,45,99.99,,,-99.99,,2013-02-11 20:52:00,
2013-02-11 16:02:00,83.0,59.0,30.09,SSE,152,3.0,7.0,45,99.99,,,-99.99,,2013-02-11 21:02:00,
2013-02-11 16:12:00,84.0,60.0,30.09,SSW,198,6.0,9.0,44,99.99,,,-99.99,,2013-02-11 21:12:00,
2013-02-11 16:22:00,84.0,60.0,30.09,SSW,198,6.0,9.0,44,99.99,,,-99.99,,2013-02-11 21:22:00,
2013-02-11 16:32:00,84.0,60.0,30.09,SW,225,4.0,8.0,45,99.99,,,-99.99,,2013-02-11 21:32:00,
2013-02-11 16:42:00,83.0,59.0,30.08,SSW,208,6.0,10.0,44,99.99,,,-99.99,,2013-02-11 21:42:00,
2013-02-11 16:52:00,83.0,59.0,30.08,SSW,208,6.0,10.0,44,99.99,,,-99.99,,2013-02-11 21:52:00,
2013-02-11 17:02:00,84.0,60.0,30.08,WSW,255,4.0,6.0,44,99.99,,,-99.99,,2013-02-11 22:02:00,
2013-02-11 17:12:00,84.0,60.0,30.08,WSW,238,5.0,8.0,44,99.99,,,-99.99,,2013-02-11 22:12:00,
2013-02-11 17:22:00,84.0,60.0,30.08,WSW,238,5.0,8.0,44,99.99,,,-99.99,,2013-02-11 22:22:00,
2013-02-11 17:32:00,82.0,60.0,30.08,SW,217,5.0,8.0,47,99.99,,,-99.99,,2013-02-11 22:32:00,
2013-02-11 17:42:00,82.0,60.0,30.08,SW,217,5.0,8.0,47,99.99,,,-99.99,,2013-02-11 22:42:00,
2013-02-11 17:52:00,81.0,60.0,30.08,SSW,197,3.0,5.0,49,99.99,,,-99.99,,2013-02-11 22:52:00,
2013-02-11 18:02:00,81.0,61.0,30.08,SSW,195,1.0,4.0,51,99.99,,,-99.99,,2013-02-11 23:02:00,
2013-02-11 18:11:00,81.0,61.0,30.08,SSW,195,1.0,4.0,51,99.99,,,-99.99,,2013-02-11 23:11:00,
2013-02-11 18:22:00,80.0,62.0,30.08,North,0,0.0,0.0,54,99.99,,,-99.99,,2013-02-11 23:22:00,
2013-02-11 18:32:00,78.0,62.0,30.08,South,176,1.0,4.0,58,99.99,,,-99.99,,2013-02-11 23:32:00,
2013-02-11 18:42:00,78.0,62.0,30.08,South,176,1.0,4.0,58,99.99,,,-99.99,,2013-02-11 23:42:00,
2013-02-11 18:52:00,76.0,62.0,30.09,North,0,0.0,0.0,61,99.99,,,-99.99,,2013-02-11 23:52:00,
2013-02-11 19:02:00,74.0,61.0,30.09,North,0,0.0,0.0,64,99.99,,,-99.99,,2013-02-12 00:02:00,
2013-02-11 19:12:00,74.0,61.0,30.09,North,0,0.0,0.0,64,99.99,,,-99.99,,2013-02-12 00:12:00,
2013-02-11 19:22:00,73.0,61.0,30.10,ESE,115,2.0,4.0,67,99.99,,,-99.99,,2013-02-12 00:22:00,
2013-02-11 19:32:00,74.0,62.0,30.10,South,187,5.0,8.0,66,99.99,,,-99.99,,2013-02-12 00:32:00,
2013-02-11 19:42:00,74.0,62.0,30.10,South,187,5.0,8.0,66,99.99,,,-99.99,,2013-02-12 00:42:00,
2013-02-11 19:52:00,75.0,63.0,30.10,South,172,5.0,9.0,66,99.99,,,-99.99,,2013-02-12 00:52:00,
2013-02-11 20:02:00,74.0,62.0,30.11,SSW,194,4.0,6.0,66,99.99,,,-99.99,,2013-02-12 01:02:00,
2013-02-11 20:11:00,74.0,62.0,30.11,SSW,194,4.0,6.0,66,99.99,,,-99.99,,2013-02-12 01:11:00,
2013-02-11 20:22:00,74.0,63.0,30.11,South,176,4.0,7.0,68,99.99,,,-99.99,,2013-02-12 01:22:00,
2013-02-11 20:32:00,74.0,63.0,30.11,South,180,4.0,8.0,69,99.99,,,-99.99,,2013-02-12 01:32:00,
2013-02-11 20:42:00,73.0,63.0,30.11,SSW,211,5.0,9.0,70,99.99,,,-99.99,,2013-02-12 01:42:00,
2013-02-11 20:52:00,73.0,63.0,30.11,SSW,211,5.0,9.0,70,99.99,,,-99.99,,2013-02-12 01:52:00,
2013-02-11 21:02:00,73.0,63.0,30.11,South,181,6.0,9.0,71,99.99,,,-99.99,,2013-02-12 02:02:00,
2013-02-11 21:12:00,73.0,63.0,30.11,SSE,158,6.0,10.0,72,99.99,,,-99.99,,2013-02-12 02:12:00,
2013-02-11 21:22:00,73.0,63.0,30.11,SSE,158,6.0,10.0,72,99.99,,,-99.99,,2013-02-12 02:22:00,
2013-02-11 21:32:00,73.0,63.0,30.11,South,174,6.0,9.0,72,99.99,,,-99.99,,2013-02-12 02:32:00,
2013-02-11 21:42:00,73.0,63.0,30.11,South,174,6.0,9.0,72,99.99,,,-99.99,,2013-02-12 02:42:00,
2013-02-11 21:53:00,72.0,63.0,30.12,South,181,6.0,9.0,73,99.99,,,-99.99,,2013-02-12 02:53:00,
2013-02-11 22:02:00,72.0,63.0,30.12,South,180,5.0,10.0,74,99.99,,,-99.99,,2013-02-12 03:02:00,
2013-02-11 22:11:00,72.0,64.0,30.12,SSW,203,6.0,10.0,75,99.99,,,-99.99,,2013-02-12 03:11:00,
2013-02-11 22:21:00,72.0,64.0,30.12,SSW,203,6.0,10.0,75,99.99,,,-99.99,,2013-02-12 03:21:00,
2013-02-11 22:32:00,71.0,63.0,30.12,South,177,5.0,8.0,76,99.99,,,-99.99,,2013-02-12 03:32:00,
2013-02-11 22:42:00,71.0,63.0,30.12,South,177,5.0,8.0,77,99.99,,,-99.99,,2013-02-12 03:42:00,
2013-02-11 22:52:00,71.0,63.0,30.12,South,177,5.0,8.0,77,99.99,,,-99.99,,2013-02-12 03:52:00,
2013-02-11 23:01:00,70.0,63.0,30.11,SSW,200,5.0,8.0,78,99.99,,,-99.99,,2013-02-12 04:01:00,
2013-02-11 23:11:00,70.0,63.0,30.11,SSW,200,5.0,8.0,78,99.99,,,-99.99,,2013-02-12 04:11:00,
2013-02-11 23:21:00,70.0,63.0,30.12,SSW,205,6.0,9.0,79,99.99,,,-99.99,,2013-02-12 04:21:00,
2013-02-11 23:31:00,70.0,63.0,30.12,WSW,242,4.0,7.0,79,99.99,,,-99.99,,2013-02-12 04:31:00,
2013-02-11 23:42:00,70.0,63.0,30.12,WSW,242,4.0,7.0,79,99.99,,,-99.99,,2013-02-12 04:42:00,
2013-02-11 23:51:00,69.0,63.0,30.12,SW,218,5.0,7.0,81,99.99,,,-99.99,,2013-02-12 04:51:00,